createdAt,value
2022-09-22T00:00:42.544Z,131.23404
2022-09-22T00:05:44.509Z,130.66667
2022-09-22T00:10:46.054Z,130.66667
2022-09-22T00:15:47.790Z,129.54217
2022-09-22T00:20:49.471Z,131.23404
2022-09-22T00:25:51.105Z,130.66667
2022-09-22T00:30:52.846Z,131.23404
2022-09-22T00:35:54.821Z,130.66667
2022-09-22T00:40:56.424Z,131.23404
2022-09-22T00:45:58.045Z,130.66667
2022-09-22T00:50:59.824Z,130.10272
2022-09-22T00:56:01.590Z,130.66667
2022-09-22T01:01:03.477Z,129.54217
2022-09-22T01:06:05.215Z,129.54217
2022-09-22T01:11:06.964Z,128.98498
2022-09-22T01:16:08.658Z,128.98498
2022-09-22T01:21:10.109Z,127.8806
2022-09-22T01:26:11.571Z,127.8806
2022-09-22T01:31:13.162Z,127.33333
2022-09-22T01:36:15.470Z,126.24852
2022-09-22T01:41:16.926Z,126.24852
2022-09-22T01:46:18.493Z,126.24852
2022-09-22T01:51:20.159Z,125.71091
2022-09-22T01:56:21.803Z,125.71091
2022-09-22T02:01:23.731Z,125.71091
2022-09-22T02:06:25.825Z,126.78932
2022-09-22T02:11:27.543Z,127.8806
2022-09-22T02:16:29.242Z,127.8806
2022-09-22T02:21:31.027Z,128.98498
2022-09-22T02:26:32.773Z,126.78932
2022-09-22T02:31:34.555Z,124.64516
2022-09-22T02:36:36.711Z,123.59184
2022-09-22T02:41:38.411Z,123.06977
2022-09-22T02:46:40.259Z,122.55072
2022-09-22T02:51:42.201Z,122.03468
2022-09-22T02:56:44.030Z,122.03468
2022-09-22T03:01:45.935Z,119
2022-09-22T03:06:48.112Z,115.11111
2022-09-22T03:11:49.875Z,125.17647
2022-09-22T03:16:51.602Z,126.78932
2022-09-22T03:21:53.242Z,124.64516
2022-09-22T03:26:54.948Z,124.11696
2022-09-22T03:31:56.680Z,127.8806
2022-09-22T03:36:58.730Z,127.33333
2022-09-22T03:42:00.493Z,137.71069
2022-09-22T03:47:02.282Z,148.65116
2022-09-22T03:52:03.810Z,157.88889
2022-09-22T03:57:05.582Z,162.43972
2022-09-22T04:02:07.439Z,166.38267
2022-09-22T04:07:09.223Z,172.14815
2022-09-22T04:12:10.792Z,164
2022-09-22T04:17:12.340Z,156.41379
2022-09-22T04:22:13.812Z,157.14879
2022-09-22T04:27:20.116Z,138.93671
2022-09-22T04:32:23.856Z,142.07074
2022-09-22T04:37:27.439Z,137.71069
2022-09-22T04:42:29.074Z,135.90031
2022-09-22T04:47:30.793Z,131.23404
2022-09-22T04:52:32.552Z,133.53846
2022-09-22T04:57:34.309Z,131.23404
2022-09-22T05:02:36.058Z,130.66667
2022-09-22T05:07:37.927Z,134.12346
2022-09-22T05:12:39.572Z,126.24852
2022-09-22T05:17:41.328Z,126.24852
2022-09-22T05:22:43.005Z,126.24852
2022-09-22T05:27:44.714Z,125.71091
2022-09-22T05:32:46.460Z,127.8806
2022-09-22T05:37:48.777Z,134.71207
2022-09-22T05:42:50.366Z,145.30719
2022-09-22T05:47:51.998Z,144.65147
2022-09-22T05:52:53.691Z,158.63415
2022-09-22T05:57:55.391Z,160.14035
2022-09-22T06:02:57.165Z,158.63415
2022-09-22T06:13:10.181Z,159.38462
2022-09-22T06:18:14.927Z,173.85075
2022-09-22T06:23:16.980Z,167.18841
2022-09-22T06:28:18.636Z,179.1145
2022-09-22T06:33:20.182Z,205.01695
2022-09-22T06:38:21.660Z,233.20188
2022-09-22T06:43:24.357Z,245.96078
2022-09-22T06:48:25.833Z,263.17098
2022-09-22T06:53:27.711Z,234.56604
2022-09-22T06:58:29.436Z,227.87097
2022-09-22T07:03:30.923Z,224
2022-09-22T07:08:32.545Z,244.4878
2022-09-22T07:13:34.487Z,245.96078
2022-09-22T07:18:36.190Z,259.89744
2022-09-22T07:23:37.802Z,250.46766
2022-09-22T07:28:39.494Z,261.52577
2022-09-22T07:33:41.183Z,268.21053
2022-09-22T07:38:42.868Z,280.61202
2022-09-22T07:43:44.852Z,275.1828
2022-09-22T07:48:46.586Z,284.33149
2022-09-22T07:53:48.356Z,271.65957
2022-09-22T07:58:50.185Z,308.49704
2022-09-22T08:03:51.990Z,264.83333
2022-09-22T08:08:53.874Z,317.33333
2022-09-22T08:13:56.470Z,407.15789
2022-09-22T08:18:58.211Z,357.42282
2022-09-22T08:23:59.974Z,377.80282
2022-09-22T08:29:01.757Z,360.21622
2022-09-22T08:34:03.571Z,390.37681
2022-09-22T08:39:05.467Z,410.66667
2022-09-22T08:44:07.661Z,417.84615
2022-09-22T08:49:09.406Z,425.25
2022-09-22T08:54:10.875Z,407.15789
2022-09-22T08:59:12.383Z,400.2963
2022-09-22T09:04:13.847Z,466.0339
2022-09-22T09:09:15.408Z,489.13274
2022-09-22T09:14:17.961Z,494
2022-09-22T09:19:19.424Z,489.13274
2022-09-22T09:29:52.631Z,536.30769
2022-09-22T09:34:55.911Z,599.31915
2022-09-22T09:39:57.513Z,652.04598
2022-09-22T09:44:59.273Z,547.92157
2022-09-22T09:50:00.930Z,628.44444
2022-09-22T09:55:02.581Z,723.74684
2022-09-22T10:00:04.126Z,787.83562
2022-09-22T10:05:05.610Z,776.43243
2022-09-22T10:10:07.292Z,765.33333
2022-09-22T10:15:08.930Z,744
2022-09-22T10:20:10.402Z,620.92308
2022-09-22T10:25:11.944Z,652.04598
2022-09-22T10:30:13.575Z,744
2022-09-22T10:35:15.102Z,668.70588
2022-09-22T10:40:16.682Z,744
2022-09-22T10:45:18.529Z,765.33333
2022-09-22T10:50:20.005Z,787.83562
2022-09-22T10:55:21.454Z,686.16867
2022-09-22T11:00:23.053Z,677.33333
2022-09-22T11:05:24.456Z,723.74684
2022-09-22T11:10:26.037Z,644
2022-09-22T11:15:28.265Z,686.16867
2022-09-22T11:20:30.012Z,695.21951
2022-09-22T11:25:31.742Z,799.55556
2022-09-22T11:30:33.786Z,765.33333
2022-09-22T11:35:35.369Z,704.49383
2022-09-22T11:40:36.948Z,652.04598
2022-09-22T11:45:38.830Z,714
2022-09-22T11:50:40.317Z,714
2022-09-22T11:55:41.863Z,620.92308
2022-09-22T12:00:43.612Z,776.43243
2022-09-22T12:05:45.166Z,863.40299
2022-09-22T12:10:46.634Z,849.88235
2022-09-22T12:15:49.374Z,863.40299
2022-09-22T12:20:50.921Z,849.88235
2022-09-22T12:25:52.400Z,921.77778
2022-09-22T12:30:54.226Z,836.75362
2022-09-22T12:35:56.019Z,824
2022-09-22T12:40:57.771Z,906.5
2022-09-22T12:45:59.796Z,877.33333
2022-09-22T12:51:01.629Z,906.5
2022-09-22T12:56:03.358Z,891.69231
2022-09-22T13:01:05.305Z,953.83607
2022-09-22T13:06:07.092Z,1024.70175
2022-09-22T13:11:08.830Z,1064
2022-09-22T13:16:10.853Z,906.5
2022-09-22T13:21:12.331Z,970.66667
2022-09-22T13:26:13.828Z,1106.26415
2022-09-22T13:31:15.561Z,1106.26415
2022-09-22T13:36:17.220Z,1201.14286
2022-09-22T13:41:18.903Z,1151.84314
2022-09-22T13:46:20.860Z,1446.43902
2022-09-22T13:51:22.641Z,1565.05263
2022-09-22T13:56:24.375Z,1655.11111
2022-09-22T14:01:26.309Z,1410.66667
2022-09-22T14:06:28.073Z,1312.88889
2022-09-22T14:11:29.836Z,1410.66667
2022-09-22T14:16:32.103Z,1201.14286
2022-09-22T14:21:33.935Z,1312.88889
2022-09-22T14:26:35.367Z,1227.33333
2022-09-22T14:31:37.188Z,1151.84314
2022-09-22T14:36:39.083Z,1201.14286
2022-09-22T14:41:40.802Z,1523.48718
2022-09-22T14:46:42.785Z,1655.11111
2022-09-22T14:51:44.492Z,1484
2022-09-22T14:56:46.242Z,1565.05263
2022-09-22T15:01:48.004Z,1376.55814
2022-09-22T15:06:49.562Z,1523.48718
2022-09-22T15:11:51.290Z,1655.11111
2022-09-22T15:16:53.325Z,1446.43902
2022-09-22T15:21:54.957Z,988.0678
2022-09-22T15:26:56.701Z,970.66667
2022-09-22T15:31:58.514Z,921.77778
2022-09-22T15:37:00.262Z,787.83562
2022-09-22T15:42:02.176Z,660.27907
2022-09-22T15:47:04.137Z,765.33333
2022-09-22T15:52:05.961Z,536.30769
2022-09-22T15:57:07.695Z,620.92308
2022-09-22T16:02:09.510Z,599.31915
2022-09-22T16:07:11.375Z,553.90099
2022-09-22T16:12:12.878Z,504
2022-09-22T16:17:15.092Z,440.77419
2022-09-22T16:22:16.605Z,371.77778
2022-09-22T16:27:18.256Z,336.35669
2022-09-22T16:32:19.834Z,282.46154
2022-09-22T16:37:21.379Z,261.52577
2022-09-22T16:42:23.824Z,207.24786
2022-09-22T16:47:25.879Z,288.13408
2022-09-22T16:52:27.620Z,363.04762
2022-09-22T16:57:29.264Z,393.63504
2022-09-22T17:02:31.068Z,400.2963
2022-09-22T17:07:32.722Z,298.02299
2022-09-22T17:12:34.537Z,329
2022-09-22T17:17:36.420Z,219
2022-09-22T17:22:38.053Z,230.51163
2022-09-22T17:27:39.744Z,266.51309
2022-09-22T17:32:41.369Z,276.97297
2022-09-22T17:37:43.010Z,200.66667
2022-09-22T17:42:44.750Z,182.75969
2022-09-22T17:47:46.699Z,158.63415
2022-09-22T17:52:48.418Z,147.97351
2022-09-22T17:57:50.131Z,150.71141
2022-09-22T18:02:51.969Z,142.07074
2022-09-22T18:07:53.892Z,137.71069
2022-09-22T18:12:55.688Z,135.30435
2022-09-22T18:17:57.648Z,143.35275
2022-09-22T18:22:59.462Z,150.71141
2022-09-22T18:28:01.277Z,160.90141
2022-09-22T18:33:03.137Z,158.63415
2022-09-22T18:38:04.886Z,170.47059
2022-09-22T18:43:06.670Z,170.47059
2022-09-22T18:48:09.737Z,190.4
2022-09-22T18:53:11.471Z,208.37768
2022-09-22T18:58:13.189Z,190.4
2022-09-22T19:03:14.736Z,189.41833
2022-09-22T19:08:16.306Z,175.57895
2022-09-22T19:13:17.857Z,180.92308
2022-09-22T19:18:19.768Z,188.44444
2022-09-22T19:23:21.206Z,202.82353
2022-09-22T19:28:22.741Z,225.27854
2022-09-22T19:33:24.191Z,255.11111
2022-09-22T19:38:25.632Z,248.9505
2022-09-22T19:43:27.185Z,233.20188
2022-09-22T19:48:28.919Z,220.23318
2022-09-22T19:53:30.457Z,215.36564
2022-09-22T19:58:32.183Z,208.37768
2022-09-22T20:03:33.680Z,203.91561
2022-09-22T20:08:35.132Z,206.12766
2022-09-22T20:13:36.759Z,206.12766
2022-09-22T20:18:41.349Z,227.87097
2022-09-22T20:23:43.014Z,219
2022-09-22T20:28:44.514Z,212.99563
2022-09-22T20:33:45.943Z,227.87097
2022-09-22T20:38:47.599Z,226.56881
2022-09-22T20:43:49.027Z,224
2022-09-22T20:48:51.228Z,220.23318
2022-09-22T20:53:53.060Z,221.47748
2022-09-22T20:58:54.785Z,241.58454
2022-09-22T21:03:56.626Z,241.58454
2022-09-22T21:08:58.371Z,258.28571
2022-09-22T21:13:59.860Z,253.54774
2022-09-22T21:19:01.963Z,253.54774
2022-09-22T21:24:03.922Z,263.17098
2022-09-22T21:29:05.720Z,259.89744
2022-09-22T21:34:07.290Z,252
2022-09-22T21:39:09.002Z,252
2022-09-22T21:44:10.821Z,264.83333
2022-09-22T21:49:12.564Z,271.65957
2022-09-22T21:54:14.001Z,273.41176
2022-09-22T21:59:15.436Z,280.61202
2022-09-22T22:04:17.260Z,276.97297
2022-09-22T22:09:18.834Z,269.92593
2022-09-22T22:14:20.313Z,273.41176
2022-09-22T22:19:22.044Z,271.65957
2022-09-22T22:24:23.587Z,241.58454
2022-09-22T22:29:25.227Z,255.11111
2022-09-22T22:34:26.762Z,247.44828
2022-09-22T22:39:28.437Z,235.94313
2022-09-22T22:44:29.992Z,238.73684
2022-09-22T22:49:31.718Z,252
2022-09-22T22:54:33.465Z,247.44828
2022-09-22T22:59:34.919Z,241.58454
2022-09-22T23:04:36.547Z,233.20188
2022-09-22T23:09:38.266Z,247.44828
2022-09-22T23:14:40.057Z,231.85047
2022-09-22T23:19:41.884Z,227.87097
2022-09-22T23:24:43.573Z,240.15385
2022-09-22T23:29:45.035Z,233.20188
2022-09-22T23:34:46.818Z,244.4878
2022-09-22T23:39:48.245Z,235.94313
2022-09-22T23:44:49.909Z,240.15385
2022-09-22T23:49:51.626Z,234.56604
2022-09-22T23:54:53.167Z,253.54774
2022-09-22T23:59:54.701Z,240.15385
